Time;durP1;ratioP1;P1;durP2;ratioP2;P2;SDS_P1;SDS_P2;PMS_P1;PMS_P2;Temp;Humidity;BMP_temperature;BMP_pressure;BME280_temperature;BME280_humidity;BME280_pressure;Samples;Min_cycle;Max_cycle;Signal;HPM_P1;HPM_P2
2021/09/26 00:01:43;;;;;;;16.52;7.82;;;;;;;;;;4967140;28;20078;-60
2021/09/26 00:04:10;;;;;;;16.92;8.43;;;;;;;;;;4972236;28;20169;-58
2021/09/26 00:06:36;;;;;;;18.80;9.45;;;;;;;;;;4970986;28;20031;-59
2021/09/26 00:09:03;;;;;;;19.67;9.48;;;;;;;;;;4983633;28;20042;-60
2021/09/26 00:11:33;;;;;;;22.52;9.88;;;;;;;;;;4976261;28;20043;-59
2021/09/26 00:13:59;;;;;;;17.45;9.45;;;;;;;;;;4985578;28;20136;-59
2021/09/26 00:16:26;;;;;;;26.00;8.85;;;;;;;;;;4986984;28;20049;-59
2021/09/26 00:18:52;;;;;;;21.88;9.65;;;;;;;;;;4998176;28;20131;-59
2021/09/26 00:21:19;;;;;;;19.58;9.00;;;;;;;;;;4986271;28;20049;-61
2021/09/26 00:23:45;;;;;;;18.15;9.15;;;;;;;;;;5002886;28;20493;-59
2021/09/26 00:26:12;;;;;;;19.85;9.40;;;;;;;;;;4999313;28;20111;-58
2021/09/26 00:28:40;;;;;;;19.20;9.23;;;;;;;;;;4985240;28;20058;-58
2021/09/26 00:31:06;;;;;;;19.70;8.43;;;;;;;;;;4998237;28;20046;-58
2021/09/26 00:33:33;;;;;;;17.77;9.07;;;;;;;;;;4982674;28;20054;-59
2021/09/26 00:36:00;;;;;;;20.35;8.40;;;;;;;;;;4980337;28;20054;-59
2021/09/26 00:38:26;;;;;;;17.40;8.43;;;;;;;;;;4985031;28;20039;-59
2021/09/26 00:40:54;;;;;;;22.23;9.55;;;;;;;;;;4980032;28;20049;-61
2021/09/26 00:43:20;;;;;;;23.13;9.70;;;;;;;;;;4982996;28;20053;-61
2021/09/26 00:45:49;;;;;;;20.52;9.65;;;;;;;;;;4976693;28;20047;-61
2021/09/26 00:48:15;;;;;;;22.48;8.45;;;;;;;;;;4964362;28;20058;-60
2021/09/26 00:50:43;;;;;;;26.33;11.85;;;;;;;;;;4975522;28;20026;-60
2021/09/26 00:53:10;;;;;;;22.30;10.00;;;;;;;;;;4988829;28;20051;-61
2021/09/26 00:55:37;;;;;;;20.48;9.32;;;;;;;;;;4984735;28;20038;-61
2021/09/26 00:58:04;;;;;;;17.85;8.43;;;;;;;;;;4987851;28;20124;-59
2021/09/26 01:00:31;;;;;;;18.35;9.07;;;;;;;;;;4985482;28;20048;-60
2021/09/26 01:03:00;;;;;;;21.00;9.55;;;;;;;;;;5004881;28;20097;-63
2021/09/26 01:05:27;;;;;;;18.38;9.48;;;;;;;;;;4987665;28;20034;-62
2021/09/26 01:07:58;;;;;;;21.40;9.52;;;;;;;;;;4986652;28;20082;-62
2021/09/26 01:10:29;;;;;;;18.67;9.18;;;;;;;;;;5004593;28;20176;-62
2021/09/26 01:13:02;;;;;;;19.90;9.63;;;;;;;;;;4984298;28;20049;-61
2021/09/26 01:15:34;;;;;;;19.13;9.63;;;;;;;;;;4990146;28;20034;-59
2021/09/26 01:18:05;;;;;;;22.00;9.93;;;;;;;;;;4966726;28;20054;-60
2021/09/26 01:20:36;;;;;;;18.88;8.98;;;;;;;;;;4986591;28;20133;-60
2021/09/26 01:23:31;;;;;;;18.02;8.95;;;;;;;;;;4980637;28;20120;-59
2021/09/26 01:26:02;;;;;;;21.27;8.65;;;;;;;;;;4989705;28;20046;-61
2021/09/26 01:28:43;;;;;;;19.85;8.68;;;;;;;;;;4982530;28;20070;-60
2021/09/26 01:31:13;;;;;;;16.92;8.45;;;;;;;;;;4987780;28;20101;-59
2021/09/26 01:33:42;;;;;;;18.60;9.18;;;;;;;;;;4982673;28;20050;-60
2021/09/26 01:36:12;;;;;;;18.73;8.68;;;;;;;;;;5006159;28;20038;-59
2021/09/26 01:38:41;;;;;;;19.52;8.32;;;;;;;;;;5000713;28;20108;-59
2021/09/26 01:41:12;;;;;;;18.70;8.93;;;;;;;;;;5003699;28;20038;-58
2021/09/26 01:43:40;;;;;;;19.90;9.52;;;;;;;;;;4980906;28;20089;-59
2021/09/26 01:46:08;;;;;;;24.58;9.23;;;;;;;;;;5004377;28;20093;-59
2021/09/26 01:48:39;;;;;;;20.58;8.93;;;;;;;;;;4982208;28;20119;-59
2021/09/26 01:51:06;;;;;;;16.92;9.02;;;;;;;;;;4988252;28;20049;-59
2021/09/26 01:53:33;;;;;;;19.17;9.63;;;;;;;;;;4982558;28;20169;-58
2021/09/26 01:56:00;;;;;;;18.92;9.05;;;;;;;;;;4984023;28;20053;-59
2021/09/26 01:58:28;;;;;;;19.42;9.07;;;;;;;;;;4980037;28;20045;-58
2021/09/26 02:00:54;;;;;;;19.13;9.02;;;;;;;;;;4986248;28;20046;-60
2021/09/26 02:03:23;;;;;;;17.48;9.10;;;;;;;;;;4979805;28;20058;-59
2021/09/26 02:05:53;;;;;;;18.92;8.30;;;;;;;;;;4984485;28;20039;-58
2021/09/26 02:08:19;;;;;;;25.42;9.30;;;;;;;;;;4979848;28;20116;-60
2021/09/26 02:10:48;;;;;;;18.92;8.80;;;;;;;;;;4981398;28;20035;-59
2021/09/26 02:13:15;;;;;;;;;;;;;;;;;;4963397;28;20042;-61
2021/09/26 02:15:43;;;;;;;19.30;7.78;;;;;;;;;;4983004;28;19937;-60
2021/09/26 02:18:10;;;;;;;17.75;8.35;;;;;;;;;;4984091;28;20027;-62
2021/09/26 02:20:37;;;;;;;17.08;8.65;;;;;;;;;;4979402;28;20039;-61
2021/09/26 02:23:06;;;;;;;18.20;8.63;;;;;;;;;;4984621;28;20054;-62
2021/09/26 02:25:32;;;;;;;;;;;;;;;;;;4980522;28;20129;-59
2021/09/26 02:27:58;;;;;;;20.42;8.75;;;;;;;;;;4998807;28;19930;-59
2021/09/26 02:30:27;;;;;;;16.50;7.97;;;;;;;;;;4980705;28;20042;-61
2021/09/26 02:32:54;;;;;;;21.75;8.32;;;;;;;;;;4983760;28;20049;-59
2021/09/26 02:35:21;;;;;;;22.20;8.20;;;;;;;;;;4980782;28;20034;-59
2021/09/26 02:37:47;;;;;;;15.85;8.15;;;;;;;;;;4984551;28;20087;-59
2021/09/26 02:40:16;;;;;;;17.67;8.30;;;;;;;;;;4971290;28;20047;-57
2021/09/26 02:42:45;;;;;;;17.08;7.97;;;;;;;;;;4982165;28;20160;-60
2021/09/26 02:45:14;;;;;;;19.15;9.13;;;;;;;;;;4968623;28;20039;-59
2021/09/26 02:47:43;;;;;;;17.88;8.27;;;;;;;;;;4966712;28;20054;-60
2021/09/26 02:50:13;;;;;;;17.73;8.80;;;;;;;;;;4968607;28;20030;-59
2021/09/26 02:52:41;;;;;;;17.95;8.05;;;;;;;;;;4982944;28;20034;-59
2021/09/26 02:55:09;;;;;;;20.80;9.15;;;;;;;;;;4977855;28;20094;-59
2021/09/26 02:57:37;;;;;;;18.02;8.07;;;;;;;;;;4963195;28;20039;-59
2021/09/26 03:00:04;;;;;;;21.58;9.20;;;;;;;;;;4961777;28;20043;-58
2021/09/26 03:02:31;;;;;;;15.90;8.05;;;;;;;;;;5019341;23;20039;-61
2021/09/26 03:04:57;;;;;;;16.38;7.90;;;;;;;;;;4933298;29;20036;-60
2021/09/26 03:07:24;;;;;;;17.00;8.10;;;;;;;;;;4923495;29;20061;-61
2021/09/26 03:09:50;;;;;;;17.92;8.57;;;;;;;;;;4925505;29;20099;-60
2021/09/26 03:12:23;;;;;;;20.20;8.35;;;;;;;;;;4924034;29;20131;-61
2021/09/26 03:14:51;;;;;;;18.70;9.02;;;;;;;;;;4926279;29;20084;-61
2021/09/26 03:17:18;;;;;;;19.27;8.73;;;;;;;;;;4923305;29;20087;-61
2021/09/26 03:19:44;;;;;;;17.33;8.38;;;;;;;;;;4927300;29;20044;-60
2021/09/26 03:22:19;;;;;;;17.80;8.40;;;;;;;;;;4922388;29;20063;-59
2021/09/26 03:24:46;;;;;;;16.55;8.00;;;;;;;;;;4925671;29;20040;-61
2021/09/26 03:27:13;;;;;;;17.88;8.43;;;;;;;;;;4927401;29;20028;-59
2021/09/26 03:29:41;;;;;;;22.70;8.30;;;;;;;;;;4922084;29;20040;-59
2021/09/26 03:32:11;;;;;;;19.00;8.48;;;;;;;;;;4924159;29;20039;-61
2021/09/26 03:34:38;;;;;;;14.48;8.13;;;;;;;;;;4921630;29;20042;-60
2021/09/26 03:37:05;;;;;;;16.85;8.13;;;;;;;;;;4927883;29;20055;-59
2021/09/26 03:39:31;;;;;;;16.60;8.15;;;;;;;;;;4921010;29;20134;-59
2021/09/26 03:42:03;;;;;;;18.23;8.52;;;;;;;;;;4927958;29;20028;-59
2021/09/26 03:44:30;;;;;;;18.83;8.07;;;;;;;;;;4923352;29;20048;-60
2021/09/26 03:46:57;;;;;;;18.67;8.40;;;;;;;;;;4938991;29;20043;-59
2021/09/26 03:49:25;;;;;;;18.17;8.95;;;;;;;;;;4908752;29;20044;-59
2021/09/26 03:51:52;;;;;;;20.02;7.97;;;;;;;;;;4894109;29;20131;-58
2021/09/26 03:54:19;;;;;;;17.75;7.35;;;;;;;;;;4906231;29;20040;-60
2021/09/26 03:56:46;;;;;;;17.20;7.60;;;;;;;;;;4903380;29;20040;-61
2021/09/26 03:59:13;;;;;;;19.23;7.93;;;;;;;;;;4909606;29;20052;-59
2021/09/26 04:02:06;;;;;;;16.73;8.18;;;;;;;;;;4904090;29;20056;-60
2021/09/26 04:04:34;;;;;;;16.52;7.63;;;;;;;;;;4860072;29;20069;-59
2021/09/26 04:07:00;;;;;;;19.58;8.05;;;;;;;;;;4905134;29;20522;-60
2021/09/26 04:09:27;;;;;;;16.17;7.38;;;;;;;;;;4913929;29;20055;-61
2021/09/26 04:11:55;;;;;;;26.73;8.10;;;;;;;;;;4915529;29;20044;-61
2021/09/26 04:14:21;;;;;;;19.33;8.40;;;;;;;;;;4918574;29;20055;-61
2021/09/26 04:16:49;;;;;;;19.13;7.82;;;;;;;;;;4928239;29;20047;-59
2021/09/26 04:19:16;;;;;;;17.23;8.32;;;;;;;;;;4923674;29;20079;-61
2021/09/26 04:21:44;;;;;;;15.88;7.95;;;;;;;;;;4919431;29;20036;-58
2021/09/26 04:24:11;;;;;;;16.17;7.68;;;;;;;;;;4921859;29;20080;-61
2021/09/26 04:26:37;;;;;;;16.90;8.70;;;;;;;;;;4907589;29;20092;-63
2021/09/26 04:29:04;;;;;;;15.35;6.88;;;;;;;;;;4906478;29;20036;-60
2021/09/26 04:31:32;;;;;;;14.63;7.30;;;;;;;;;;4924746;29;20040;-62
2021/09/26 04:33:59;;;;;;;18.02;7.95;;;;;;;;;;4906777;29;20029;-61
2021/09/26 04:36:25;;;;;;;16.90;8.25;;;;;;;;;;4914177;29;20059;-62
2021/09/26 04:38:53;;;;;;;22.23;8.95;;;;;;;;;;4907381;29;20032;-59
2021/09/26 04:41:22;;;;;;;16.48;7.68;;;;;;;;;;4923833;29;20056;-59
2021/09/26 04:43:48;;;;;;;;;;;;;;;;;;4909659;29;20133;-59
2021/09/26 04:46:15;;;;;;;15.52;7.35;;;;;;;;;;4918885;29;19916;-61
2021/09/26 04:48:41;;;;;;;16.60;8.25;;;;;;;;;;4924055;29;20048;-60
2021/09/26 04:51:08;;;;;;;15.20;8.20;;;;;;;;;;4903826;29;20044;-59
2021/09/26 04:53:34;;;;;;;18.45;7.85;;;;;;;;;;4923510;29;20119;-60
2021/09/26 04:56:02;;;;;;;19.50;7.78;;;;;;;;;;4920155;29;20073;-59
2021/09/26 04:58:29;;;;;;;23.27;8.10;;;;;;;;;;4923688;29;20052;-59
2021/09/26 05:00:56;;;;;;;17.42;7.85;;;;;;;;;;4920359;29;20044;-59
2021/09/26 05:03:22;;;;;;;16.75;7.70;;;;;;;;;;4933648;29;20040;-59
2021/09/26 05:05:49;;;;;;;16.15;6.97;;;;;;;;;;4937152;28;20135;-58
2021/09/26 05:08:15;;;;;;;14.88;7.18;;;;;;;;;;4941170;29;20115;-59
2021/09/26 05:10:42;;;;;;;15.57;7.50;;;;;;;;;;4938842;28;20051;-58
2021/09/26 05:13:10;;;;;;;16.35;7.68;;;;;;;;;;4912980;29;20041;-59
2021/09/26 05:15:36;;;;;;;14.00;7.40;;;;;;;;;;4903267;29;20119;-60
2021/09/26 05:18:03;;;;;;;17.10;7.57;;;;;;;;;;4922658;29;20116;-56
2021/09/26 05:20:30;;;;;;;16.90;7.10;;;;;;;;;;4915032;29;20124;-58
2021/09/26 05:22:58;;;;;;;17.25;7.72;;;;;;;;;;4920783;29;20044;-59
2021/09/26 05:25:24;;;;;;;;;;;;;;;;;;4907992;29;20040;-59
2021/09/26 05:27:51;;;;;;;18.63;7.03;;;;;;;;;;4902830;29;19935;-59
2021/09/26 05:30:19;;;;;;;14.95;6.97;;;;;;;;;;4907376;29;20120;-59
2021/09/26 05:32:46;;;;;;;16.63;7.32;;;;;;;;;;4904891;29;20040;-59
2021/09/26 05:35:13;;;;;;;13.25;7.10;;;;;;;;;;4924016;29;20064;-59
2021/09/26 05:37:40;;;;;;;14.35;7.05;;;;;;;;;;4908160;29;20056;-60
2021/09/26 05:40:07;;;;;;;17.65;7.57;;;;;;;;;;4911009;29;20053;-59
2021/09/26 05:42:36;;;;;;;18.10;8.43;;;;;;;;;;4907836;29;20041;-57
2021/09/26 05:45:03;;;;;;;17.13;8.25;;;;;;;;;;4912310;29;20065;-59
2021/09/26 05:47:31;;;;;;;13.07;7.05;;;;;;;;;;4906638;29;20073;-61
2021/09/26 05:49:57;;;;;;;17.88;7.82;;;;;;;;;;4942561;29;20032;-60
2021/09/26 05:52:29;;;;;;;18.30;7.38;;;;;;;;;;4906962;29;20048;-60
2021/09/26 05:54:56;;;;;;;16.58;7.68;;;;;;;;;;4909416;29;20041;-58
2021/09/26 05:57:22;;;;;;;20.85;8.05;;;;;;;;;;4906059;29;20036;-58
2021/09/26 05:59:49;;;;;;;15.13;7.88;;;;;;;;;;4926692;29;20064;-58
2021/09/26 06:02:22;;;;;;;15.32;7.68;;;;;;;;;;4941961;28;20131;-62
2021/09/26 06:04:50;;;;;;;17.73;7.70;;;;;;;;;;4931174;29;20090;-60
2021/09/26 06:07:17;;;;;;;20.30;7.85;;;;;;;;;;4946817;28;20032;-59
2021/09/26 06:09:43;;;;;;;20.85;8.02;;;;;;;;;;4930939;29;20040;-61
2021/09/26 06:12:10;;;;;;;23.17;8.02;;;;;;;;;;4938426;29;20031;-64
2021/09/26 06:14:37;;;;;;;19.77;8.10;;;;;;;;;;4930615;28;20047;-62
2021/09/26 06:17:04;;;;;;;16.70;7.80;;;;;;;;;;4931557;28;20027;-61
2021/09/26 06:19:31;;;;;;;18.88;8.25;;;;;;;;;;4928567;28;20055;-58
2021/09/26 06:22:06;;;;;;;20.23;8.23;;;;;;;;;;4932514;28;20031;-60
2021/09/26 06:24:32;;;;;;;18.25;8.02;;;;;;;;;;4956774;28;20035;-59
2021/09/26 06:26:59;;;;;;;15.68;7.93;;;;;;;;;;4951937;28;20043;-61
2021/09/26 06:29:25;;;;;;;18.92;8.13;;;;;;;;;;4930024;28;20047;-62
2021/09/26 06:31:56;;;;;;;18.70;7.60;;;;;;;;;;4932198;28;20040;-61
2021/09/26 06:34:22;;;;;;;15.40;7.88;;;;;;;;;;4958329;28;20121;-59
2021/09/26 06:36:49;;;;;;;21.52;8.40;;;;;;;;;;4948379;28;20051;-58
2021/09/26 06:39:17;;;;;;;15.68;7.85;;;;;;;;;;4927298;29;20039;-61
2021/09/26 06:41:47;;;;;;;13.48;7.57;;;;;;;;;;4930414;29;20044;-60
2021/09/26 06:44:14;;;;;;;16.73;7.90;;;;;;;;;;4960254;28;20083;-57
2021/09/26 06:46:41;;;;;;;18.35;7.70;;;;;;;;;;4948000;28;20071;-57
2021/09/26 06:49:07;;;;;;;16.67;8.23;;;;;;;;;;4928461;28;20053;-60
2021/09/26 06:51:35;;;;;;;20.23;9.10;;;;;;;;;;4951216;28;20050;-61
2021/09/26 06:54:02;;;;;;;14.40;7.82;;;;;;;;;;4949712;28;20047;-61
2021/09/26 06:56:29;;;;;;;15.10;8.25;;;;;;;;;;4927870;28;20047;-58
2021/09/26 06:58:56;;;;;;;15.45;8.27;;;;;;;;;;4930964;28;20056;-59
2021/09/26 07:01:23;;;;;;;19.95;8.88;;;;;;;;;;4956598;28;20040;-62
2021/09/26 07:03:53;;;;;;;16.98;8.65;;;;;;;;;;4927253;29;20127;-59
2021/09/26 07:06:19;;;;;;;14.90;7.55;;;;;;;;;;4942126;28;20114;-58
2021/09/26 07:08:46;;;;;;;18.20;9.00;;;;;;;;;;4950545;28;20046;-59
2021/09/26 07:11:20;;;;;;;17.95;8.50;;;;;;;;;;4933923;29;20054;-57
2021/09/26 07:13:48;;;;;;;15.60;8.20;;;;;;;;;;4948007;28;20055;-62
2021/09/26 07:16:15;;;;;;;21.02;8.80;;;;;;;;;;4926268;29;20044;-60
2021/09/26 07:18:41;;;;;;;20.63;9.02;;;;;;;;;;4939425;29;20043;-59
2021/09/26 07:21:09;;;;;;;15.95;8.15;;;;;;;;;;4962954;28;20062;-59
2021/09/26 07:23:36;;;;;;;20.07;8.47;;;;;;;;;;4961739;28;20040;-60
2021/09/26 07:26:04;;;;;;;19.00;8.27;;;;;;;;;;4957340;28;20031;-56
2021/09/26 07:28:31;;;;;;;19.55;8.85;;;;;;;;;;4943569;29;20073;-61
2021/09/26 07:30:59;;;;;;;22.45;8.15;;;;;;;;;;4948085;28;20031;-60
2021/09/26 07:33:26;;;;;;;24.50;9.10;;;;;;;;;;4934450;28;20047;-61
2021/09/26 07:35:53;;;;;;;18.15;9.15;;;;;;;;;;4949618;28;20129;-62
2021/09/26 07:38:19;;;;;;;16.20;8.75;;;;;;;;;;4955309;28;20107;-61
2021/09/26 07:40:46;;;;;;;18.08;8.90;;;;;;;;;;4969535;28;20116;-60
2021/09/26 07:43:18;;;;;;;18.52;9.35;;;;;;;;;;4946863;28;20039;-60
2021/09/26 07:45:44;;;;;;;23.00;9.50;;;;;;;;;;4955040;28;20035;-59
2021/09/26 07:48:12;;;;;;;19.17;9.25;;;;;;;;;;4946916;28;20053;-63
2021/09/26 07:50:39;;;;;;;22.02;9.45;;;;;;;;;;4937702;28;20039;-59
2021/09/26 07:53:05;;;;;;;19.77;8.57;;;;;;;;;;4934704;28;20043;-61
2021/09/26 07:55:32;;;;;;;18.83;9.68;;;;;;;;;;4964250;28;20046;-58
2021/09/26 07:57:58;;;;;;;17.65;8.88;;;;;;;;;;4932857;29;20028;-59
2021/09/26 08:00:25;;;;;;;19.67;9.18;;;;;;;;;;4942009;28;20040;-61
2021/09/26 08:02:51;;;;;;;19.60;9.13;;;;;;;;;;4937841;28;20058;-62
2021/09/26 08:05:19;;;;;;;17.45;8.88;;;;;;;;;;4947665;28;20046;-60
2021/09/26 08:07:46;;;;;;;19.85;9.68;;;;;;;;;;4925924;28;20145;-60
2021/09/26 08:10:13;;;;;;;17.05;8.77;;;;;;;;;;4947490;28;20068;-58
2021/09/26 08:12:41;;;;;;;18.35;9.65;;;;;;;;;;4924398;28;20036;-61
2021/09/26 08:15:07;;;;;;;;;;;;;;;;;;4943983;29;20064;-58
2021/09/26 08:17:34;;;;;;;;;;;;;;;;;;4922809;28;19915;-60
2021/09/26 08:20:00;;;;;;;;;;;;;;;;;;4925866;29;19907;-59
2021/09/26 08:22:29;;;;;;;;;;;;;;;;;;4926289;29;19923;-59
2021/09/26 08:24:56;;;;;;;;;;;;;;;;;;4941970;28;19929;-59
2021/09/26 08:27:23;;;;;;;;;;;;;;;;;;4928669;28;19929;-59
2021/09/26 08:29:49;;;;;;;;;;;;;;;;;;4941410;28;20009;-58
2021/09/26 08:32:15;;;;;;;;;;;;;;;;;;4960103;28;19919;-59
2021/09/26 08:34:42;;;;;;;;;;;;;;;;;;4938689;28;19931;-58
2021/09/26 08:37:08;;;;;;;;;;;;;;;;;;4940720;29;19955;-58
2021/09/26 08:39:34;;;;;;;;;;;;;;;;;;4937738;28;20006;-58
2021/09/26 08:42:01;;;;;;;;;;;;;;;;;;4953210;28;19919;-59
2021/09/26 08:44:27;;;;;;;;;;;;;;;;;;4925811;29;20013;-58
2021/09/26 08:46:55;;;;;;;;;;;;;;;;;;4944251;29;19989;-59
2021/09/26 08:49:21;;;;;;;;;;;;;;;;;;4924565;29;19982;-59
2021/09/26 08:51:50;;;;;;;;;;;;;;;;;;4944850;29;19930;-59
2021/09/26 08:54:16;;;;;;;;;;;;;;;;;;4941639;28;19931;-56
2021/09/26 08:56:42;;;;;;;;;;;;;;;;;;4928407;29;20052;-60
2021/09/26 08:59:09;;;;;;;;;;;;;;;;;;4939856;29;19927;-58
2021/09/26 09:01:35;;;;;;;;;;;;;;;;;;4928625;29;19914;-60
2021/09/26 09:04:01;;;;;;;;;;;;;;;;;;4929312;29;19919;-59
2021/09/26 09:06:28;;;;;;;;;;;;;;;;;;4953757;28;20234;-61
2021/09/26 09:08:54;;;;;;;;;;;;;;;;;;4945105;29;19919;-60
2021/09/26 09:11:25;;;;;;;;;;;;;;;;;;4945862;28;19923;-61
2021/09/26 09:13:51;;;;;;;;;;;;;;;;;;4943566;28;19919;-60
2021/09/26 09:16:19;;;;;;;;;;;;;;;;;;4941413;28;19923;-61
2021/09/26 09:18:46;;;;;;;;;;;;;;;;;;4929275;29;19915;-62
2021/09/26 09:21:13;;;;;;;;;;;;;;;;;;4925423;29;20010;-61
2021/09/26 09:23:39;;;;;;;;;;;;;;;;;;4949081;28;19939;-62
2021/09/26 09:26:06;;;;;;;;;;;;;;;;;;4945396;28;19968;-61
2021/09/26 09:28:39;;;;;;;;;;;;;;;;;;4945134;28;19919;-60
2021/09/26 09:31:05;;;;;;;;;;;;;;;;;;4941538;28;19915;-62
2021/09/26 09:33:31;;;;;;;;;;;;;;;;;;4944436;28;19987;-62
2021/09/26 09:35:57;;;;;;;;;;;;;;;;;;4941008;28;19918;-61
2021/09/26 09:38:24;;;;;;;;;;;;;;;;;;4944591;28;19923;-60
2021/09/26 09:40:51;;;;;;;;;;;;;;;;;;4926857;28;20063;-62
2021/09/26 09:43:17;;;;;;;;;;;;;;;;;;4944704;28;19919;-61
2021/09/26 09:45:43;;;;;;;;;;;;;;;;;;4944170;28;19927;-61
2021/09/26 09:50:40;;;;;;;23.10;11.52;;;;;;;;;;5120818;27;20354;-55
2021/09/26 09:53:08;;;;;;;23.63;11.68;;;;;;;;;;5048561;28;20033;-53
2021/09/26 09:55:36;;;;;;;28.45;12.73;;;;;;;;;;5040891;28;20044;-55
2021/09/26 09:58:13;;;;;;;29.80;15.23;;;;;;;;;;5069831;28;20059;-55
2021/09/26 10:00:46;;;;;;;26.58;14.07;;;;;;;;;;5078528;28;20049;-51
2021/09/26 10:03:32;;;;;;;29.00;13.52;;;;;;;;;;5057014;28;20056;-56
2021/09/26 10:06:03;;;;;;;24.77;12.82;;;;;;;;;;5059593;28;20053;-53
2021/09/26 10:08:33;;;;;;;28.35;14.43;;;;;;;;;;5037874;28;20051;-56
2021/09/26 10:11:06;;;;;;;25.90;13.65;;;;;;;;;;5065172;28;20036;-57
2021/09/26 10:13:32;;;;;;;25.55;13.23;;;;;;;;;;5063108;28;20033;-56
2021/09/26 10:15:59;;;;;;;23.38;13.15;;;;;;;;;;5076128;28;20041;-58
2021/09/26 10:18:27;;;;;;;22.33;12.57;;;;;;;;;;5044257;28;20056;-55
2021/09/26 10:20:54;;;;;;;21.80;12.50;;;;;;;;;;5058553;28;20036;-53
2021/09/26 10:23:23;;;;;;;21.67;12.18;;;;;;;;;;5054626;28;20084;-58
2021/09/26 10:25:52;;;;;;;26.80;13.48;;;;;;;;;;5058349;28;20114;-53
2021/09/26 10:28:21;;;;;;;21.58;13.07;;;;;;;;;;5056018;28;20049;-54
2021/09/26 10:30:49;;;;;;;21.90;11.93;;;;;;;;;;5077214;28;20045;-53
2021/09/26 10:33:15;;;;;;;22.42;11.75;;;;;;;;;;5055064;28;20071;-55
2021/09/26 10:35:42;;;;;;;20.30;11.32;;;;;;;;;;5056399;28;20037;-56
2021/09/26 10:38:10;;;;;;;24.25;13.00;;;;;;;;;;5056428;28;20063;-55
2021/09/26 10:40:39;;;;;;;21.60;11.50;;;;;;;;;;5052966;28;20045;-57
2021/09/26 10:43:17;;;;;;;21.83;11.57;;;;;;;;;;5056629;28;20048;-55
2021/09/26 10:45:43;;;;;;;24.20;12.55;;;;;;;;;;5060101;28;20072;-53
2021/09/26 10:48:10;;;;;;;21.05;10.45;;;;;;;;;;5060688;28;20052;-50
2021/09/26 10:50:38;;;;;;;21.23;11.00;;;;;;;;;;5036887;28;20081;-57
2021/09/26 10:53:09;;;;;;;25.25;12.20;;;;;;;;;;5040210;28;20124;-55
2021/09/26 10:55:36;;;;;;;19.73;10.77;;;;;;;;;;5035490;28;20107;-58
2021/09/26 10:58:15;;;;;;;23.48;10.90;;;;;;;;;;5039990;28;20041;-57
2021/09/26 11:00:41;;;;;;;;;;;;;;;;;;5046187;28;20057;-56
2021/09/26 11:03:08;;;;;;;18.15;9.35;;;;;;;;;;5044651;28;19916;-56
2021/09/26 11:05:39;;;;;;;22.70;10.88;;;;;;;;;;5039623;28;20037;-54
2021/09/26 11:08:08;;;;;;;21.27;11.00;;;;;;;;;;5042694;28;20122;-57
2021/09/26 11:10:36;;;;;;;17.88;9.15;;;;;;;;;;5034779;28;20118;-54
2021/09/26 11:13:10;;;;;;;18.45;10.35;;;;;;;;;;5045801;28;20098;-55
2021/09/26 11:15:52;;;;;;;18.95;10.55;;;;;;;;;;5031411;28;20044;-57
2021/09/26 11:18:41;;;;;;;19.15;10.35;;;;;;;;;;5016887;28;20025;-58
2021/09/26 11:21:08;;;;;;;18.90;9.80;;;;;;;;;;5022275;28;20037;-59
2021/09/26 11:23:37;;;;;;;17.52;10.07;;;;;;;;;;5011650;28;20077;-58
2021/09/26 11:26:04;;;;;;;18.02;9.85;;;;;;;;;;5053278;28;20040;-58
2021/09/26 11:28:32;;;;;;;19.38;8.73;;;;;;;;;;5020647;28;20052;-58
2021/09/26 11:30:59;;;;;;;22.83;9.35;;;;;;;;;;5026666;28;20037;-59
2021/09/26 11:33:25;;;;;;;18.95;9.60;;;;;;;;;;5023967;28;20045;-55
2021/09/26 11:35:53;;;;;;;18.58;10.15;;;;;;;;;;5021368;28;20123;-59
2021/09/26 11:38:22;;;;;;;17.35;9.88;;;;;;;;;;5024510;28;20146;-58
2021/09/26 11:40:55;;;;;;;18.58;10.07;;;;;;;;;;5025292;28;20036;-57
2021/09/26 11:43:22;;;;;;;23.15;10.77;;;;;;;;;;5064073;28;20056;-57
2021/09/26 11:45:51;;;;;;;18.10;10.50;;;;;;;;;;5040882;28;20056;-57
2021/09/26 11:48:17;;;;;;;16.38;10.15;;;;;;;;;;5064158;28;20118;-57
2021/09/26 11:50:45;;;;;;;18.73;9.18;;;;;;;;;;5045190;28;20045;-58
2021/09/26 11:53:14;;;;;;;17.73;9.40;;;;;;;;;;5041775;28;20053;-58
2021/09/26 11:55:41;;;;;;;20.20;10.15;;;;;;;;;;5025561;28;20175;-58
2021/09/26 11:58:09;;;;;;;20.58;10.68;;;;;;;;;;5057897;28;20048;-59
2021/09/26 12:00:38;;;;;;;18.10;10.32;;;;;;;;;;5066276;28;20068;-58
2021/09/26 12:03:19;;;;;;;17.75;9.77;;;;;;;;;;5046462;28;20045;-59
2021/09/26 12:05:46;;;;;;;16.33;8.82;;;;;;;;;;5062081;28;20044;-59
2021/09/26 12:08:14;;;;;;;17.65;10.27;;;;;;;;;;5035966;28;20059;-59
2021/09/26 12:10:41;;;;;;;14.15;8.73;;;;;;;;;;5041558;28;20037;-58
2021/09/26 12:13:15;;;;;;;16.88;8.95;;;;;;;;;;5034424;28;20115;-58
2021/09/26 12:15:42;;;;;;;19.80;10.80;;;;;;;;;;5063302;28;20037;-59
2021/09/26 12:18:17;;;;;;;19.33;9.40;;;;;;;;;;5038246;28;20049;-58
2021/09/26 12:20:43;;;;;;;17.92;9.80;;;;;;;;;;5033606;28;20049;-59
2021/09/26 12:23:18;;;;;;;20.58;10.80;;;;;;;;;;5049142;28;20059;-58
2021/09/26 12:25:46;;;;;;;19.85;11.68;;;;;;;;;;5052404;28;20044;-57
2021/09/26 12:28:19;;;;;;;17.60;9.93;;;;;;;;;;5043256;28;20033;-58
2021/09/26 12:30:47;;;;;;;15.75;9.48;;;;;;;;;;5062254;28;20078;-57
2021/09/26 12:33:20;;;;;;;15.55;9.50;;;;;;;;;;5033568;28;20041;-58
2021/09/26 12:35:48;;;;;;;17.10;10.07;;;;;;;;;;5023887;28;20064;-57
2021/09/26 12:38:21;;;;;;;15.07;9.37;;;;;;;;;;5022127;28;20056;-57
2021/09/26 12:40:51;;;;;;;16.40;9.40;;;;;;;;;;5027948;28;20072;-57
2021/09/26 12:43:21;;;;;;;16.45;8.80;;;;;;;;;;5038362;28;20041;-57
2021/09/26 12:45:47;;;;;;;14.10;9.23;;;;;;;;;;5044629;28;20041;-55
2021/09/26 12:48:15;;;;;;;19.05;8.95;;;;;;;;;;5053141;28;20041;-58
2021/09/26 12:50:43;;;;;;;18.30;9.45;;;;;;;;;;5042184;28;20029;-57
2021/09/26 12:53:11;;;;;;;14.68;8.82;;;;;;;;;;5020333;28;20087;-58
2021/09/26 12:55:38;;;;;;;17.60;9.38;;;;;;;;;;5023961;28;20041;-59
2021/09/26 12:58:07;;;;;;;13.00;8.23;;;;;;;;;;5023698;28;20045;-56
2021/09/26 13:00:33;;;;;;;;;;;;;;;;;;5038877;28;20118;-57
2021/09/26 13:03:02;;;;;;;18.02;10.15;;;;;;;;;;5024440;28;19943;-58
2021/09/26 13:05:30;;;;;;;17.58;9.52;;;;;;;;;;5026425;28;20047;-57
2021/09/26 13:08:01;;;;;;;16.08;9.57;;;;;;;;;;5026590;28;20087;-58
2021/09/26 13:10:28;;;;;;;14.82;9.55;;;;;;;;;;5023159;28;20034;-55
2021/09/26 13:12:55;;;;;;;18.10;9.40;;;;;;;;;;5045445;28;20047;-58
2021/09/26 13:15:32;;;;;;;17.08;10.07;;;;;;;;;;5041020;28;20045;-58
2021/09/26 13:18:13;;;;;;;19.92;10.50;;;;;;;;;;5042741;28;20041;-58
2021/09/26 13:20:40;;;;;;;16.10;10.23;;;;;;;;;;5040740;28;20061;-59
2021/09/26 13:23:24;;;;;;;21.45;10.57;;;;;;;;;;5044317;28;20033;-58
2021/09/26 13:25:51;;;;;;;15.68;9.50;;;;;;;;;;5037035;28;20048;-58
2021/09/26 13:28:19;;;;;;;18.15;9.88;;;;;;;;;;5041684;28;20129;-59
2021/09/26 13:30:49;;;;;;;20.10;10.32;;;;;;;;;;5048060;28;20049;-59
2021/09/26 13:33:18;;;;;;;18.88;9.73;;;;;;;;;;5042317;28;20045;-58
2021/09/26 13:35:45;;;;;;;19.55;11.07;;;;;;;;;;5044561;28;20044;-58
2021/09/26 13:38:17;;;;;;;17.92;10.02;;;;;;;;;;5059698;28;20046;-59
2021/09/26 13:40:44;;;;;;;16.05;9.27;;;;;;;;;;5051468;28;20056;-58
2021/09/26 13:43:26;;;;;;;14.97;9.07;;;;;;;;;;5024210;28;20057;-58
2021/09/26 13:45:54;;;;;;;22.58;10.43;;;;;;;;;;5033052;28;20038;-58
2021/09/26 13:48:21;;;;;;;19.98;11.02;;;;;;;;;;5056835;28;20041;-59
2021/09/26 13:50:47;;;;;;;18.60;11.23;;;;;;;;;;5062013;28;20036;-58
2021/09/26 13:53:15;;;;;;;17.77;10.02;;;;;;;;;;5061867;28;20041;-58
2021/09/26 13:55:41;;;;;;;15.43;8.88;;;;;;;;;;5038755;28;20048;-57
2021/09/26 13:58:08;;;;;;;14.93;9.50;;;;;;;;;;5025512;28;20037;-57
2021/09/26 14:00:35;;;;;;;14.40;9.15;;;;;;;;;;5024555;28;20037;-58
2021/09/26 14:03:03;;;;;;;20.95;10.00;;;;;;;;;;5040214;28;20041;-57
2021/09/26 14:05:29;;;;;;;19.13;9.63;;;;;;;;;;5052519;28;20041;-56
2021/09/26 14:07:55;;;;;;;15.73;9.30;;;;;;;;;;5040296;28;20060;-58
2021/09/26 14:10:22;;;;;;;17.42;9.82;;;;;;;;;;5045396;28;20044;-57
2021/09/26 14:12:49;;;;;;;14.98;8.82;;;;;;;;;;5064208;28;20107;-58
2021/09/26 14:15:16;;;;;;;18.58;9.48;;;;;;;;;;5029031;28;20102;-59
2021/09/26 14:17:42;;;;;;;15.52;9.20;;;;;;;;;;5024779;28;20048;-59
2021/09/26 14:20:11;;;;;;;15.80;8.80;;;;;;;;;;5022013;28;20113;-59
2021/09/26 14:22:38;;;;;;;19.05;9.00;;;;;;;;;;5019242;28;20049;-59
2021/09/26 14:25:06;;;;;;;16.40;9.25;;;;;;;;;;5040700;28;20130;-58
2021/09/26 14:27:32;;;;;;;14.45;8.35;;;;;;;;;;5036130;28;20041;-58
2021/09/26 14:29:59;;;;;;;14.98;8.50;;;;;;;;;;5039895;28;20044;-58
2021/09/26 14:32:27;;;;;;;17.25;8.70;;;;;;;;;;5018915;28;20033;-59
2021/09/26 14:34:53;;;;;;;16.30;8.40;;;;;;;;;;5036810;28;20053;-58
2021/09/26 14:37:21;;;;;;;13.65;8.40;;;;;;;;;;5058076;28;20044;-58
2021/09/26 14:39:47;;;;;;;14.98;9.10;;;;;;;;;;5042668;28;20068;-59
2021/09/26 14:42:14;;;;;;;12.88;8.23;;;;;;;;;;5041858;28;20044;-59
2021/09/26 14:44:42;;;;;;;15.60;7.75;;;;;;;;;;5028417;28;20056;-60
2021/09/26 14:47:08;;;;;;;17.17;8.57;;;;;;;;;;5067203;28;20048;-64
2021/09/26 14:49:35;;;;;;;13.98;8.60;;;;;;;;;;5062034;28;20114;-58
2021/09/26 14:52:03;;;;;;;14.18;7.80;;;;;;;;;;5065459;28;20105;-61